Strona główna
METAR-TAF:

METAR-TAF

Lotnisko :

Livingston County Spencer J. Hardy Airport

Howell, Michigan, Stany Zjednoczone

Szerokość geograficzna: 42-37-46N, Długość geograficzna: 083-59-03W, wysokość: 293 m

Aktualna obserwacja pogody

Raport powstał 8 minut temu, godzina 13:56 UTC
Wiatr 9 kt od zachód w porywach dochodzący do 14 kt
Temperatura -2°C
Wilgotność 86%
Ciśnienie 1014 hPa
Widzialność: 8.0 km
Przerywane chmury na wysokości 1200 ft
Przerywane chmury na wysokości 1600 ft
Zachmurzenie całkowite na wysokości 2400 ft
słaby śnieg

METAR: KOZW 151356Z AUTO 26009G14KT 5SM -SN BKN012 BKN016 OVC024 M02/M04 A2995 RMK AO2 T10201037

czas: 09:04 (14:04 UTC)


TAF: brakujący

Obserwacja i prognoza pogody dla ponad 4000 lotnisk (raport METAR i TAF).

Dostępne stacje oznaczono żółtymi i czerwonymi punktami na mapie.

Najedź kursorem aby zobaczyć nazwę stacji.

Kliknij aby zobaczyć obserwacje i prognozy pogody.

Aby zmienić mapę: kliknij na zielony przycisk z czarnym krzyżykiem, aby powiększyć; na zielony przycisk z myślnikiem, aby pomniejszyć; na zielone strzałki, aby przejść do map sąsiednich.


METAR-TAF: